sensor_id;sensor_type;location;lat;lon;timestamp;P1;durP1;ratioP1;P2;durP2;ratioP2
21743;SDS011;11034;48.556;9.342;2022-07-25T00:01:18;7.90;;;7.10;;
21743;SDS011;11034;48.556;9.342;2022-07-25T00:03:48;8.77;;;7.88;;
21743;SDS011;11034;48.556;9.342;2022-07-25T00:06:17;7.32;;;6.63;;
21743;SDS011;11034;48.556;9.342;2022-07-25T00:08:45;7.60;;;6.90;;
21743;SDS011;11034;48.556;9.342;2022-07-25T00:11:13;8.95;;;6.82;;
21743;SDS011;11034;48.556;9.342;2022-07-25T00:13:42;8.98;;;7.03;;
21743;SDS011;11034;48.556;9.342;2022-07-25T00:16:10;8.82;;;6.95;;
21743;SDS011;11034;48.556;9.342;2022-07-25T00:18:39;9.95;;;6.55;;
21743;SDS011;11034;48.556;9.342;2022-07-25T00:21:07;8.07;;;7.18;;
21743;SDS011;11034;48.556;9.342;2022-07-25T00:23:35;9.40;;;7.35;;
21743;SDS011;11034;48.556;9.342;2022-07-25T00:26:03;8.75;;;6.65;;
21743;SDS011;11034;48.556;9.342;2022-07-25T00:28:31;9.60;;;7.22;;
21743;SDS011;11034;48.556;9.342;2022-07-25T00:31:01;8.82;;;7.07;;
21743;SDS011;11034;48.556;9.342;2022-07-25T00:33:29;8.18;;;7.38;;
21743;SDS011;11034;48.556;9.342;2022-07-25T00:35:57;7.80;;;6.95;;
21743;SDS011;11034;48.556;9.342;2022-07-25T00:38:26;9.48;;;6.88;;
21743;SDS011;11034;48.556;9.342;2022-07-25T00:40:54;8.18;;;7.38;;
21743;SDS011;11034;48.556;9.342;2022-07-25T00:43:22;8.07;;;7.28;;
21743;SDS011;11034;48.556;9.342;2022-07-25T00:45:50;8.25;;;6.60;;
21743;SDS011;11034;48.556;9.342;2022-07-25T00:48:19;7.95;;;6.70;;
21743;SDS011;11034;48.556;9.342;2022-07-25T00:50:47;8.80;;;7.07;;
21743;SDS011;11034;48.556;9.342;2022-07-25T00:53:15;9.35;;;6.97;;
21743;SDS011;11034;48.556;9.342;2022-07-25T00:55:44;8.40;;;7.13;;
21743;SDS011;11034;48.556;9.342;2022-07-25T00:58:13;7.35;;;6.53;;
21743;SDS011;11034;48.556;9.342;2022-07-25T01:00:41;8.73;;;7.53;;
21743;SDS011;11034;48.556;9.342;2022-07-25T01:03:09;10.30;;;7.82;;
21743;SDS011;11034;48.556;9.342;2022-07-25T01:05:39;10.73;;;7.47;;
21743;SDS011;11034;48.556;9.342;2022-07-25T01:08:07;10.00;;;7.47;;
21743;SDS011;11034;48.556;9.342;2022-07-25T01:10:36;8.52;;;7.63;;
21743;SDS011;11034;48.556;9.342;2022-07-25T01:13:04;9.68;;;7.72;;
21743;SDS011;11034;48.556;9.342;2022-07-25T01:15:33;10.00;;;7.70;;
21743;SDS011;11034;48.556;9.342;2022-07-25T01:18:01;9.10;;;7.65;;
21743;SDS011;11034;48.556;9.342;2022-07-25T01:20:31;9.07;;;7.85;;
21743;SDS011;11034;48.556;9.342;2022-07-25T01:23:00;8.38;;;7.50;;
21743;SDS011;11034;48.556;9.342;2022-07-25T01:25:28;10.02;;;8.02;;
21743;SDS011;11034;48.556;9.342;2022-07-25T01:27:56;9.50;;;7.78;;
21743;SDS011;11034;48.556;9.342;2022-07-25T01:30:24;9.02;;;8.07;;
21743;SDS011;11034;48.556;9.342;2022-07-25T01:32:52;11.63;;;8.07;;
21743;SDS011;11034;48.556;9.342;2022-07-25T01:35:20;9.50;;;8.50;;
21743;SDS011;11034;48.556;9.342;2022-07-25T01:37:50;9.00;;;7.75;;
21743;SDS011;11034;48.556;9.342;2022-07-25T01:40:18;8.80;;;7.90;;
21743;SDS011;11034;48.556;9.342;2022-07-25T01:42:46;11.65;;;8.65;;
21743;SDS011;11034;48.556;9.342;2022-07-25T01:45:14;14.10;;;8.80;;
21743;SDS011;11034;48.556;9.342;2022-07-25T01:47:42;10.50;;;8.52;;
21743;SDS011;11034;48.556;9.342;2022-07-25T01:50:10;11.55;;;8.35;;
21743;SDS011;11034;48.556;9.342;2022-07-25T01:52:38;12.45;;;9.00;;
21743;SDS011;11034;48.556;9.342;2022-07-25T01:55:08;10.15;;;8.52;;
21743;SDS011;11034;48.556;9.342;2022-07-25T01:57:37;10.93;;;8.68;;
21743;SDS011;11034;48.556;9.342;2022-07-25T02:00:14;9.23;;;8.23;;
21743;SDS011;11034;48.556;9.342;2022-07-25T02:02:43;11.85;;;9.25;;
21743;SDS011;11034;48.556;9.342;2022-07-25T02:05:12;9.50;;;8.55;;
21743;SDS011;11034;48.556;9.342;2022-07-25T02:07:41;11.10;;;8.93;;
21743;SDS011;11034;48.556;9.342;2022-07-25T02:10:10;9.65;;;8.65;;
21743;SDS011;11034;48.556;9.342;2022-07-25T02:12:38;9.90;;;8.60;;
21743;SDS011;11034;48.556;9.342;2022-07-25T02:15:07;9.82;;;8.70;;
21743;SDS011;11034;48.556;9.342;2022-07-25T02:17:35;10.15;;;9.05;;
21743;SDS011;11034;48.556;9.342;2022-07-25T02:20:04;10.40;;;9.40;;
21743;SDS011;11034;48.556;9.342;2022-07-25T02:22:33;9.68;;;8.68;;
21743;SDS011;11034;48.556;9.342;2022-07-25T02:25:00;12.48;;;9.00;;
21743;SDS011;11034;48.556;9.342;2022-07-25T02:27:30;10.35;;;9.18;;
21743;SDS011;11034;48.556;9.342;2022-07-25T02:29:58;10.60;;;9.18;;
21743;SDS011;11034;48.556;9.342;2022-07-25T02:32:26;10.60;;;9.50;;
21743;SDS011;11034;48.556;9.342;2022-07-25T02:34:54;9.75;;;8.68;;
21743;SDS011;11034;48.556;9.342;2022-07-25T02:37:23;11.35;;;9.02;;
21743;SDS011;11034;48.556;9.342;2022-07-25T02:39:51;10.68;;;8.75;;
21743;SDS011;11034;48.556;9.342;2022-07-25T02:42:19;10.18;;;9.15;;
21743;SDS011;11034;48.556;9.342;2022-07-25T02:44:49;11.95;;;8.85;;
21743;SDS011;11034;48.556;9.342;2022-07-25T02:47:17;9.77;;;8.77;;
21743;SDS011;11034;48.556;9.342;2022-07-25T02:49:44;9.82;;;8.50;;
21743;SDS011;11034;48.556;9.342;2022-07-25T02:52:12;10.05;;;8.90;;
21743;SDS011;11034;48.556;9.342;2022-07-25T02:54:41;10.20;;;9.18;;
21743;SDS011;11034;48.556;9.342;2022-07-25T02:57:09;11.00;;;9.02;;
21743;SDS011;11034;48.556;9.342;2022-07-25T02:59:37;12.15;;;8.68;;
21743;SDS011;11034;48.556;9.342;2022-07-25T03:02:06;10.48;;;8.50;;
21743;SDS011;11034;48.556;9.342;2022-07-25T03:04:34;9.88;;;8.77;;
21743;SDS011;11034;48.556;9.342;2022-07-25T03:07:03;10.30;;;9.23;;
21743;SDS011;11034;48.556;9.342;2022-07-25T03:09:31;10.40;;;8.88;;
21743;SDS011;11034;48.556;9.342;2022-07-25T03:11:59;10.43;;;9.20;;
21743;SDS011;11034;48.556;9.342;2022-07-25T03:14:27;10.15;;;8.60;;
21743;SDS011;11034;48.556;9.342;2022-07-25T03:16:55;9.60;;;8.63;;
21743;SDS011;11034;48.556;9.342;2022-07-25T03:19:24;11.45;;;8.93;;
21743;SDS011;11034;48.556;9.342;2022-07-25T03:21:53;9.30;;;8.23;;
21743;SDS011;11034;48.556;9.342;2022-07-25T03:24:21;10.13;;;9.13;;
21743;SDS011;11034;48.556;9.342;2022-07-25T03:26:49;10.52;;;9.02;;
21743;SDS011;11034;48.556;9.342;2022-07-25T03:29:18;9.50;;;8.50;;
21743;SDS011;11034;48.556;9.342;2022-07-25T03:31:46;9.48;;;8.55;;
21743;SDS011;11034;48.556;9.342;2022-07-25T03:34:14;9.85;;;8.80;;
21743;SDS011;11034;48.556;9.342;2022-07-25T03:36:43;10.75;;;9.00;;
21743;SDS011;11034;48.556;9.342;2022-07-25T03:39:11;9.45;;;8.45;;
21743;SDS011;11034;48.556;9.342;2022-07-25T03:41:39;10.43;;;8.68;;
21743;SDS011;11034;48.556;9.342;2022-07-25T03:44:07;9.23;;;8.32;;
21743;SDS011;11034;48.556;9.342;2022-07-25T03:46:36;10.95;;;9.25;;
21743;SDS011;11034;48.556;9.342;2022-07-25T03:49:04;10.52;;;8.75;;
21743;SDS011;11034;48.556;9.342;2022-07-25T03:51:32;9.68;;;8.77;;
21743;SDS011;11034;48.556;9.342;2022-07-25T03:54:01;11.48;;;8.73;;
21743;SDS011;11034;48.556;9.342;2022-07-25T03:56:34;9.95;;;8.95;;
21743;SDS011;11034;48.556;9.342;2022-07-25T03:59:09;10.82;;;9.48;;
21743;SDS011;11034;48.556;9.342;2022-07-25T04:01:39;12.07;;;9.15;;
21743;SDS011;11034;48.556;9.342;2022-07-25T04:04:08;10.18;;;9.18;;
21743;SDS011;11034;48.556;9.342;2022-07-25T04:06:36;11.50;;;9.32;;
21743;SDS011;11034;48.556;9.342;2022-07-25T04:09:06;9.80;;;8.77;;
21743;SDS011;11034;48.556;9.342;2022-07-25T04:11:35;11.23;;;9.20;;
21743;SDS011;11034;48.556;9.342;2022-07-25T04:14:03;10.80;;;9.40;;
21743;SDS011;11034;48.556;9.342;2022-07-25T04:16:32;13.52;;;10.00;;
21743;SDS011;11034;48.556;9.342;2022-07-25T04:19:02;11.60;;;9.32;;
21743;SDS011;11034;48.556;9.342;2022-07-25T04:21:31;13.27;;;9.00;;
21743;SDS011;11034;48.556;9.342;2022-07-25T04:23:59;13.07;;;9.65;;
21743;SDS011;11034;48.556;9.342;2022-07-25T04:26:29;10.30;;;9.30;;
21743;SDS011;11034;48.556;9.342;2022-07-25T04:28:57;10.85;;;9.75;;
21743;SDS011;11034;48.556;9.342;2022-07-25T04:31:28;12.98;;;9.63;;
21743;SDS011;11034;48.556;9.342;2022-07-25T04:33:57;10.77;;;8.88;;
21743;SDS011;11034;48.556;9.342;2022-07-25T04:36:25;12.93;;;9.73;;
21743;SDS011;11034;48.556;9.342;2022-07-25T04:38:53;13.13;;;9.40;;
21743;SDS011;11034;48.556;9.342;2022-07-25T04:41:21;10.27;;;9.27;;
21743;SDS011;11034;48.556;9.342;2022-07-25T04:43:50;10.35;;;9.13;;
21743;SDS011;11034;48.556;9.342;2022-07-25T04:46:19;10.98;;;9.10;;
21743;SDS011;11034;48.556;9.342;2022-07-25T04:48:48;12.93;;;9.00;;
21743;SDS011;11034;48.556;9.342;2022-07-25T04:51:18;9.52;;;8.65;;
21743;SDS011;11034;48.556;9.342;2022-07-25T04:53:46;9.15;;;8.27;;
21743;SDS011;11034;48.556;9.342;2022-07-25T04:56:14;10.57;;;9.05;;
21743;SDS011;11034;48.556;9.342;2022-07-25T04:58:42;11.73;;;8.90;;
21743;SDS011;11034;48.556;9.342;2022-07-25T05:01:12;9.93;;;8.85;;
21743;SDS011;11034;48.556;9.342;2022-07-25T05:03:40;11.15;;;9.20;;
21743;SDS011;11034;48.556;9.342;2022-07-25T05:06:15;9.57;;;8.20;;
21743;SDS011;11034;48.556;9.342;2022-07-25T05:08:44;12.00;;;8.60;;
21743;SDS011;11034;48.556;9.342;2022-07-25T05:11:12;8.63;;;7.82;;
21743;SDS011;11034;48.556;9.342;2022-07-25T05:13:40;8.90;;;8.00;;
21743;SDS011;11034;48.556;9.342;2022-07-25T05:16:08;10.73;;;8.80;;
21743;SDS011;11034;48.556;9.342;2022-07-25T05:18:38;9.30;;;8.30;;
21743;SDS011;11034;48.556;9.342;2022-07-25T05:21:08;9.48;;;8.57;;
21743;SDS011;11034;48.556;9.342;2022-07-25T05:23:37;10.65;;;8.90;;
21743;SDS011;11034;48.556;9.342;2022-07-25T05:26:05;10.20;;;9.20;;
21743;SDS011;11034;48.556;9.342;2022-07-25T05:28:33;9.65;;;8.65;;
21743;SDS011;11034;48.556;9.342;2022-07-25T05:31:01;9.90;;;9.00;;
21743;SDS011;11034;48.556;9.342;2022-07-25T05:33:29;9.40;;;8.27;;
21743;SDS011;11034;48.556;9.342;2022-07-25T05:35:58;11.55;;;8.48;;
21743;SDS011;11034;48.556;9.342;2022-07-25T05:38:28;9.63;;;8.38;;
21743;SDS011;11034;48.556;9.342;2022-07-25T05:40:56;9.23;;;8.32;;
21743;SDS011;11034;48.556;9.342;2022-07-25T05:43:24;10.63;;;8.38;;
21743;SDS011;11034;48.556;9.342;2022-07-25T05:45:52;9.43;;;8.52;;
21743;SDS011;11034;48.556;9.342;2022-07-25T05:48:26;9.27;;;8.13;;
21743;SDS011;11034;48.556;9.342;2022-07-25T05:50:54;10.48;;;8.63;;
21743;SDS011;11034;48.556;9.342;2022-07-25T05:53:24;9.18;;;8.27;;
21743;SDS011;11034;48.556;9.342;2022-07-25T05:55:52;14.75;;;8.20;;
21743;SDS011;11034;48.556;9.342;2022-07-25T05:58:21;9.90;;;8.60;;
21743;SDS011;11034;48.556;9.342;2022-07-25T06:00:55;10.20;;;8.40;;
21743;SDS011;11034;48.556;9.342;2022-07-25T06:03:23;8.82;;;7.95;;
21743;SDS011;11034;48.556;9.342;2022-07-25T06:05:51;9.82;;;7.90;;
21743;SDS011;11034;48.556;9.342;2022-07-25T06:08:21;10.02;;;8.40;;
21743;SDS011;11034;48.556;9.342;2022-07-25T06:10:54;9.70;;;8.80;;
21743;SDS011;11034;48.556;9.342;2022-07-25T06:13:23;9.40;;;8.50;;
21743;SDS011;11034;48.556;9.342;2022-07-25T06:15:53;10.43;;;8.50;;
21743;SDS011;11034;48.556;9.342;2022-07-25T06:18:21;9.20;;;8.25;;
21743;SDS011;11034;48.556;9.342;2022-07-25T06:20:49;12.27;;;8.80;;
21743;SDS011;11034;48.556;9.342;2022-07-25T06:23:18;9.23;;;7.93;;
21743;SDS011;11034;48.556;9.342;2022-07-25T06:25:48;9.57;;;8.25;;
21743;SDS011;11034;48.556;9.342;2022-07-25T06:28:16;10.13;;;7.97;;
21743;SDS011;11034;48.556;9.342;2022-07-25T06:30:44;9.63;;;8.30;;
21743;SDS011;11034;48.556;9.342;2022-07-25T06:33:14;9.55;;;8.18;;
21743;SDS011;11034;48.556;9.342;2022-07-25T06:35:42;9.35;;;8.43;;
21743;SDS011;11034;48.556;9.342;2022-07-25T06:38:10;9.52;;;8.18;;
21743;SDS011;11034;48.556;9.342;2022-07-25T06:40:38;10.27;;;7.65;;
21743;SDS011;11034;48.556;9.342;2022-07-25T06:43:07;9.82;;;7.93;;
21743;SDS011;11034;48.556;9.342;2022-07-25T06:45:35;8.68;;;7.88;;
21743;SDS011;11034;48.556;9.342;2022-07-25T06:48:04;8.38;;;7.57;;
21743;SDS011;11034;48.556;9.342;2022-07-25T06:50:32;9.88;;;7.97;;
21743;SDS011;11034;48.556;9.342;2022-07-25T06:53:00;8.57;;;7.70;;
21743;SDS011;11034;48.556;9.342;2022-07-25T06:55:28;8.73;;;7.97;;
21743;SDS011;11034;48.556;9.342;2022-07-25T06:57:56;8.25;;;7.45;;
21743;SDS011;11034;48.556;9.342;2022-07-25T07:00:26;9.07;;;8.18;;
21743;SDS011;11034;48.556;9.342;2022-07-25T07:02:54;8.77;;;8.07;;
21743;SDS011;11034;48.556;9.342;2022-07-25T07:05:24;9.27;;;8.20;;
21743;SDS011;11034;48.556;9.342;2022-07-25T07:07:54;9.40;;;7.72;;
21743;SDS011;11034;48.556;9.342;2022-07-25T07:10:22;9.20;;;8.30;;
21743;SDS011;11034;48.556;9.342;2022-07-25T07:13:00;9.13;;;8.25;;
21743;SDS011;11034;48.556;9.342;2022-07-25T07:15:34;8.95;;;7.82;;
21743;SDS011;11034;48.556;9.342;2022-07-25T07:18:04;9.48;;;8.50;;
21743;SDS011;11034;48.556;9.342;2022-07-25T07:20:32;9.65;;;8.68;;
21743;SDS011;11034;48.556;9.342;2022-07-25T07:23:01;9.60;;;8.63;;
21743;SDS011;11034;48.556;9.342;2022-07-25T07:25:31;9.30;;;8.20;;
21743;SDS011;11034;48.556;9.342;2022-07-25T07:27:59;9.93;;;8.93;;
21743;SDS011;11034;48.556;9.342;2022-07-25T07:30:27;9.85;;;8.95;;
21743;SDS011;11034;48.556;9.342;2022-07-25T07:33:17;10.88;;;8.88;;
21743;SDS011;11034;48.556;9.342;2022-07-25T07:35:45;12.25;;;9.55;;
21743;SDS011;11034;48.556;9.342;2022-07-25T07:38:13;10.23;;;9.00;;
21743;SDS011;11034;48.556;9.342;2022-07-25T07:40:41;9.38;;;8.38;;
21743;SDS011;11034;48.556;9.342;2022-07-25T07:43:09;9.88;;;8.88;;
21743;SDS011;11034;48.556;9.342;2022-07-25T07:45:37;10.40;;;9.30;;
21743;SDS011;11034;48.556;9.342;2022-07-25T07:48:05;10.10;;;9.10;;
21743;SDS011;11034;48.556;9.342;2022-07-25T07:50:35;10.45;;;9.40;;
21743;SDS011;11034;48.556;9.342;2022-07-25T07:53:03;10.70;;;9.68;;
21743;SDS011;11034;48.556;9.342;2022-07-25T07:55:31;10.68;;;9.68;;
21743;SDS011;11034;48.556;9.342;2022-07-25T07:58:11;10.65;;;9.35;;
21743;SDS011;11034;48.556;9.342;2022-07-25T08:00:41;11.43;;;8.98;;
21743;SDS011;11034;48.556;9.342;2022-07-25T08:03:10;10.90;;;9.75;;
21743;SDS011;11034;48.556;9.342;2022-07-25T08:05:40;10.30;;;9.30;;
21743;SDS011;11034;48.556;9.342;2022-07-25T08:08:10;10.52;;;9.52;;
21743;SDS011;11034;48.556;9.342;2022-07-25T08:10:40;12.27;;;9.23;;
21743;SDS011;11034;48.556;9.342;2022-07-25T08:13:11;12.40;;;9.88;;
21743;SDS011;11034;48.556;9.342;2022-07-25T08:15:40;10.68;;;9.60;;
21743;SDS011;11034;48.556;9.342;2022-07-25T08:18:09;11.95;;;9.18;;
21743;SDS011;11034;48.556;9.342;2022-07-25T08:20:44;9.80;;;8.90;;
21743;SDS011;11034;48.556;9.342;2022-07-25T08:23:12;9.30;;;8.43;;
21743;SDS011;11034;48.556;9.342;2022-07-25T08:25:41;9.77;;;8.85;;
21743;SDS011;11034;48.556;9.342;2022-07-25T08:28:09;9.77;;;8.95;;
21743;SDS011;11034;48.556;9.342;2022-07-25T08:30:38;9.25;;;8.35;;
21743;SDS011;11034;48.556;9.342;2022-07-25T08:33:08;13.02;;;9.02;;
21743;SDS011;11034;48.556;9.342;2022-07-25T08:35:38;10.27;;;9.27;;
21743;SDS011;11034;48.556;9.342;2022-07-25T08:38:08;11.30;;;8.90;;
21743;SDS011;11034;48.556;9.342;2022-07-25T08:40:38;14.50;;;10.02;;
21743;SDS011;11034;48.556;9.342;2022-07-25T08:43:09;11.07;;;9.88;;
21743;SDS011;11034;48.556;9.342;2022-07-25T08:45:40;10.05;;;9.13;;
21743;SDS011;11034;48.556;9.342;2022-07-25T08:48:11;10.55;;;9.45;;
21743;SDS011;11034;48.556;9.342;2022-07-25T08:50:40;10.38;;;9.38;;
21743;SDS011;11034;48.556;9.342;2022-07-25T08:53:09;11.68;;;9.95;;
21743;SDS011;11034;48.556;9.342;2022-07-25T08:55:59;11.10;;;9.55;;
21743;SDS011;11034;48.556;9.342;2022-07-25T08:58:36;13.30;;;10.43;;
21743;SDS011;11034;48.556;9.342;2022-07-25T09:01:05;9.98;;;8.98;;
21743;SDS011;11034;48.556;9.342;2022-07-25T09:03:33;10.68;;;9.00;;
21743;SDS011;11034;48.556;9.342;2022-07-25T09:06:11;11.65;;;9.57;;
21743;SDS011;11034;48.556;9.342;2022-07-25T09:08:50;10.48;;;8.88;;
21743;SDS011;11034;48.556;9.342;2022-07-25T09:11:29;11.43;;;9.20;;
21743;SDS011;11034;48.556;9.342;2022-07-25T09:13:59;9.65;;;8.57;;
21743;SDS011;11034;48.556;9.342;2022-07-25T09:16:31;10.05;;;9.05;;
21743;SDS011;11034;48.556;9.342;2022-07-25T09:19:07;9.63;;;7.95;;
21743;SDS011;11034;48.556;9.342;2022-07-25T09:21:37;10.02;;;7.95;;
21743;SDS011;11034;48.556;9.342;2022-07-25T09:24:08;9.27;;;7.70;;
21743;SDS011;11034;48.556;9.342;2022-07-25T09:26:45;10.02;;;8.18;;
21743;SDS011;11034;48.556;9.342;2022-07-25T09:29:18;9.63;;;8.30;;
21743;SDS011;11034;48.556;9.342;2022-07-25T09:31:48;10.52;;;8.50;;
21743;SDS011;11034;48.556;9.342;2022-07-25T09:34:30;9.07;;;8.18;;
21743;SDS011;11034;48.556;9.342;2022-07-25T09:37:00;11.30;;;7.57;;
21743;SDS011;11034;48.556;9.342;2022-07-25T09:39:34;8.10;;;7.07;;
21743;SDS011;11034;48.556;9.342;2022-07-25T09:42:21;8.75;;;7.50;;
21743;SDS011;11034;48.556;9.342;2022-07-25T09:44:58;9.20;;;7.63;;
21743;SDS011;11034;48.556;9.342;2022-07-25T09:47:32;9.57;;;7.50;;
21743;SDS011;11034;48.556;9.342;2022-07-25T09:50:01;8.35;;;7.55;;
21743;SDS011;11034;48.556;9.342;2022-07-25T09:52:30;8.88;;;7.75;;
21743;SDS011;11034;48.556;9.342;2022-07-25T09:55:02;8.73;;;7.60;;
21743;SDS011;11034;48.556;9.342;2022-07-25T09:57:31;8.50;;;7.72;;
21743;SDS011;11034;48.556;9.342;2022-07-25T09:59:59;9.20;;;8.05;;
21743;SDS011;11034;48.556;9.342;2022-07-25T10:02:32;11.30;;;8.07;;
21743;SDS011;11034;48.556;9.342;2022-07-25T10:05:13;8.60;;;7.80;;
21743;SDS011;11034;48.556;9.342;2022-07-25T10:07:44;8.65;;;7.50;;
21743;SDS011;11034;48.556;9.342;2022-07-25T10:10:26;9.52;;;7.55;;
21743;SDS011;11034;48.556;9.342;2022-07-25T10:13:02;8.30;;;7.40;;
21743;SDS011;11034;48.556;9.342;2022-07-25T10:15:43;10.20;;;7.60;;
21743;SDS011;11034;48.556;9.342;2022-07-25T10:18:13;9.35;;;7.20;;
21743;SDS011;11034;48.556;9.342;2022-07-25T10:20:45;8.52;;;7.32;;
21743;SDS011;11034;48.556;9.342;2022-07-25T10:23:21;9.10;;;7.43;;
21743;SDS011;11034;48.556;9.342;2022-07-25T10:26:02;8.45;;;7.65;;
21743;SDS011;11034;48.556;9.342;2022-07-25T10:28:38;9.65;;;7.70;;
21743;SDS011;11034;48.556;9.342;2022-07-25T10:31:18;8.82;;;7.93;;
21743;SDS011;11034;48.556;9.342;2022-07-25T10:33:52;7.43;;;6.82;;
21743;SDS011;11034;48.556;9.342;2022-07-25T10:36:22;8.88;;;6.90;;
21743;SDS011;11034;48.556;9.342;2022-07-25T10:38:51;8.40;;;7.60;;
21743;SDS011;11034;48.556;9.342;2022-07-25T10:41:24;8.20;;;7.38;;
21743;SDS011;11034;48.556;9.342;2022-07-25T10:43:55;9.48;;;6.97;;
21743;SDS011;11034;48.556;9.342;2022-07-25T10:46:27;7.40;;;6.68;;
21743;SDS011;11034;48.556;9.342;2022-07-25T10:48:58;8.32;;;7.07;;
21743;SDS011;11034;48.556;9.342;2022-07-25T10:51:28;7.40;;;6.75;;
21743;SDS011;11034;48.556;9.342;2022-07-25T10:54:13;11.73;;;7.45;;
21743;SDS011;11034;48.556;9.342;2022-07-25T10:59:26;12.13;;;6.80;;
21743;SDS011;11034;48.556;9.342;2022-07-25T11:01:59;7.22;;;6.60;;
21743;SDS011;11034;48.556;9.342;2022-07-25T11:04:28;8.02;;;7.32;;
21743;SDS011;11034;48.556;9.342;2022-07-25T11:06:56;7.75;;;6.80;;
21743;SDS011;11034;48.556;9.342;2022-07-25T11:09:33;7.18;;;6.38;;
21743;SDS011;11034;48.556;9.342;2022-07-25T11:12:03;8.40;;;6.40;;
21743;SDS011;11034;48.556;9.342;2022-07-25T11:14:32;8.20;;;6.25;;
21743;SDS011;11034;48.556;9.342;2022-07-25T11:17:10;6.38;;;5.28;;
21743;SDS011;11034;48.556;9.342;2022-07-25T11:19:41;7.15;;;5.15;;
21743;SDS011;11034;48.556;9.342;2022-07-25T11:22:10;6.32;;;5.30;;
21743;SDS011;11034;48.556;9.342;2022-07-25T11:24:39;5.57;;;5.07;;
21743;SDS011;11034;48.556;9.342;2022-07-25T11:27:10;5.18;;;4.68;;
21743;SDS011;11034;48.556;9.342;2022-07-25T11:29:40;5.88;;;4.57;;
21743;SDS011;11034;48.556;9.342;2022-07-25T11:32:09;5.25;;;4.75;;
21743;SDS011;11034;48.556;9.342;2022-07-25T11:34:38;7.95;;;4.75;;
21743;SDS011;11034;48.556;9.342;2022-07-25T11:37:09;6.85;;;4.93;;
21743;SDS011;11034;48.556;9.342;2022-07-25T11:39:40;6.63;;;4.72;;
21743;SDS011;11034;48.556;9.342;2022-07-25T11:42:12;5.20;;;4.70;;
21743;SDS011;11034;48.556;9.342;2022-07-25T11:44:43;5.15;;;4.35;;
21743;SDS011;11034;48.556;9.342;2022-07-25T11:47:23;5.15;;;4.65;;
21743;SDS011;11034;48.556;9.342;2022-07-25T11:49:53;5.05;;;4.55;;
21743;SDS011;11034;48.556;9.342;2022-07-25T11:52:23;5.25;;;4.50;;
21743;SDS011;11034;48.556;9.342;2022-07-25T11:54:52;7.80;;;4.82;;
21743;SDS011;11034;48.556;9.342;2022-07-25T11:57:24;6.28;;;4.93;;
21743;SDS011;11034;48.556;9.342;2022-07-25T11:59:53;6.72;;;4.82;;
21743;SDS011;11034;48.556;9.342;2022-07-25T12:02:22;5.57;;;5.07;;
21743;SDS011;11034;48.556;9.342;2022-07-25T12:04:55;6.72;;;4.95;;
21743;SDS011;11034;48.556;9.342;2022-07-25T12:07:37;5.65;;;4.63;;
21743;SDS011;11034;48.556;9.342;2022-07-25T12:10:07;5.70;;;5.10;;
21743;SDS011;11034;48.556;9.342;2022-07-25T12:12:45;5.80;;;5.30;;
21743;SDS011;11034;48.556;9.342;2022-07-25T12:15:16;5.85;;;5.00;;
21743;SDS011;11034;48.556;9.342;2022-07-25T12:17:46;5.20;;;4.70;;
21743;SDS011;11034;48.556;9.342;2022-07-25T12:20:16;5.47;;;5.00;;
21743;SDS011;11034;48.556;9.342;2022-07-25T12:22:46;6.97;;;5.28;;
21743;SDS011;11034;48.556;9.342;2022-07-25T12:25:17;5.43;;;4.80;;
21743;SDS011;11034;48.556;9.342;2022-07-25T12:27:47;5.68;;;5.18;;
21743;SDS011;11034;48.556;9.342;2022-07-25T12:30:16;6.80;;;5.18;;
21743;SDS011;11034;48.556;9.342;2022-07-25T12:32:44;5.35;;;4.90;;
21743;SDS011;11034;48.556;9.342;2022-07-25T12:35:13;5.55;;;4.95;;
21743;SDS011;11034;48.556;9.342;2022-07-25T12:37:41;6.07;;;5.13;;
21743;SDS011;11034;48.556;9.342;2022-07-25T12:40:10;6.82;;;4.95;;
21743;SDS011;11034;48.556;9.342;2022-07-25T12:42:39;6.30;;;4.72;;
21743;SDS011;11034;48.556;9.342;2022-07-25T12:45:10;6.25;;;4.55;;
21743;SDS011;11034;48.556;9.342;2022-07-25T12:47:38;5.63;;;4.70;;
21743;SDS011;11034;48.556;9.342;2022-07-25T12:50:06;7.95;;;4.40;;
21743;SDS011;11034;48.556;9.342;2022-07-25T12:52:35;7.30;;;4.80;;
21743;SDS011;11034;48.556;9.342;2022-07-25T12:55:04;6.25;;;4.72;;
21743;SDS011;11034;48.556;9.342;2022-07-25T12:57:33;6.30;;;4.20;;
21743;SDS011;11034;48.556;9.342;2022-07-25T13:00:02;6.55;;;4.28;;
21743;SDS011;11034;48.556;9.342;2022-07-25T13:02:34;5.25;;;4.18;;
21743;SDS011;11034;48.556;9.342;2022-07-25T13:05:03;5.20;;;4.55;;
21743;SDS011;11034;48.556;9.342;2022-07-25T13:07:33;4.80;;;4.25;;
21743;SDS011;11034;48.556;9.342;2022-07-25T13:10:01;4.38;;;3.97;;
21743;SDS011;11034;48.556;9.342;2022-07-25T13:12:30;5.15;;;4.53;;
21743;SDS011;11034;48.556;9.342;2022-07-25T13:14:58;4.95;;;4.47;;
21743;SDS011;11034;48.556;9.342;2022-07-25T13:17:27;5.45;;;4.65;;
21743;SDS011;11034;48.556;9.342;2022-07-25T13:19:56;6.97;;;4.32;;
21743;SDS011;11034;48.556;9.342;2022-07-25T13:22:24;6.18;;;4.40;;
21743;SDS011;11034;48.556;9.342;2022-07-25T13:24:53;5.28;;;4.82;;
21743;SDS011;11034;48.556;9.342;2022-07-25T13:27:21;5.05;;;4.63;;
21743;SDS011;11034;48.556;9.342;2022-07-25T13:29:49;5.75;;;4.40;;
21743;SDS011;11034;48.556;9.342;2022-07-25T13:32:20;5.72;;;4.18;;
21743;SDS011;11034;48.556;9.342;2022-07-25T13:34:49;4.95;;;4.43;;
21743;SDS011;11034;48.556;9.342;2022-07-25T13:37:18;9.98;;;4.45;;
21743;SDS011;11034;48.556;9.342;2022-07-25T13:39:47;7.63;;;5.00;;
21743;SDS011;11034;48.556;9.342;2022-07-25T13:42:15;7.95;;;4.82;;
21743;SDS011;11034;48.556;9.342;2022-07-25T13:44:43;6.05;;;4.80;;
21743;SDS011;11034;48.556;9.342;2022-07-25T13:47:11;7.75;;;5.05;;
21743;SDS011;11034;48.556;9.342;2022-07-25T13:49:39;5.72;;;5.10;;
21743;SDS011;11034;48.556;9.342;2022-07-25T13:52:07;11.10;;;5.57;;
21743;SDS011;11034;48.556;9.342;2022-07-25T13:54:37;7.32;;;5.47;;
21743;SDS011;11034;48.556;9.342;2022-07-25T13:57:06;6.57;;;5.95;;
21743;SDS011;11034;48.556;9.342;2022-07-25T13:59:35;7.32;;;6.40;;
21743;SDS011;11034;48.556;9.342;2022-07-25T14:02:03;7.65;;;6.10;;
21743;SDS011;11034;48.556;9.342;2022-07-25T14:04:31;6.40;;;5.88;;
21743;SDS011;11034;48.556;9.342;2022-07-25T14:07:00;7.22;;;6.35;;
21743;SDS011;11034;48.556;9.342;2022-07-25T14:09:28;8.18;;;6.25;;
21743;SDS011;11034;48.556;9.342;2022-07-25T14:11:57;7.13;;;6.43;;
21743;SDS011;11034;48.556;9.342;2022-07-25T14:14:26;7.53;;;6.82;;
21743;SDS011;11034;48.556;9.342;2022-07-25T14:16:54;8.02;;;6.40;;
21743;SDS011;11034;48.556;9.342;2022-07-25T14:19:22;10.85;;;6.53;;
21743;SDS011;11034;48.556;9.342;2022-07-25T14:21:50;7.72;;;6.30;;
21743;SDS011;11034;48.556;9.342;2022-07-25T14:24:21;8.35;;;6.25;;
21743;SDS011;11034;48.556;9.342;2022-07-25T14:26:49;7.78;;;6.95;;
21743;SDS011;11034;48.556;9.342;2022-07-25T14:29:20;9.95;;;6.95;;
21743;SDS011;11034;48.556;9.342;2022-07-25T14:31:55;8.25;;;6.80;;
21743;SDS011;11034;48.556;9.342;2022-07-25T14:34:23;7.95;;;6.10;;
21743;SDS011;11034;48.556;9.342;2022-07-25T14:36:52;7.00;;;6.30;;
21743;SDS011;11034;48.556;9.342;2022-07-25T14:39:20;7.47;;;6.63;;
21743;SDS011;11034;48.556;9.342;2022-07-25T14:41:48;8.20;;;6.50;;
21743;SDS011;11034;48.556;9.342;2022-07-25T14:44:16;8.02;;;6.45;;
21743;SDS011;11034;48.556;9.342;2022-07-25T14:46:46;7.25;;;6.55;;
21743;SDS011;11034;48.556;9.342;2022-07-25T14:49:15;7.53;;;6.82;;
21743;SDS011;11034;48.556;9.342;2022-07-25T14:51:44;7.63;;;6.93;;
21743;SDS011;11034;48.556;9.342;2022-07-25T14:54:12;7.75;;;6.85;;
21743;SDS011;11034;48.556;9.342;2022-07-25T14:56:42;8.07;;;7.13;;
21743;SDS011;11034;48.556;9.342;2022-07-25T14:59:11;9.90;;;7.00;;
21743;SDS011;11034;48.556;9.342;2022-07-25T15:01:39;8.68;;;7.18;;